createdAt,value
2018-12-02T00:02:04.431Z,7.10
2018-12-02T00:04:31.735Z,7.05
2018-12-02T00:06:59.077Z,7.03
2018-12-02T00:09:26.994Z,7.00
2018-12-02T00:11:54.369Z,6.96
2018-12-02T00:14:21.846Z,7.09
2018-12-02T00:16:49.305Z,7.10
2018-12-02T00:19:16.617Z,6.97
2018-12-02T00:21:43.957Z,6.97
2018-12-02T00:24:11.569Z,7.01
2018-12-02T00:26:39.631Z,6.99
2018-12-02T00:29:07.577Z,7.10
2018-12-02T00:31:34.960Z,7.12
2018-12-02T00:34:02.519Z,7.13
2018-12-02T00:36:29.885Z,7.15
2018-12-02T00:38:57.194Z,7.26
2018-12-02T00:41:25.817Z,7.31
2018-12-02T00:43:53.201Z,7.39
2018-12-02T00:46:21.120Z,7.39
2018-12-02T00:48:48.553Z,7.38
2018-12-02T00:51:15.864Z,7.41
2018-12-02T00:53:44.112Z,7.39
2018-12-02T00:56:11.356Z,7.47
2018-12-02T00:58:38.738Z,7.49
2018-12-02T01:01:06.078Z,7.51
2018-12-02T01:03:33.404Z,7.46
2018-12-02T01:06:00.964Z,7.50
2018-12-02T01:08:28.438Z,7.49
2018-12-02T01:10:55.825Z,7.54
2018-12-02T01:13:23.169Z,7.52
2018-12-02T01:15:50.538Z,7.53
2018-12-02T01:18:18.499Z,7.59
2018-12-02T01:23:51.465Z,7.49
2018-12-02T01:26:19.353Z,7.47
2018-12-02T01:28:46.730Z,7.47
2018-12-02T01:31:14.155Z,7.45
2018-12-02T01:33:41.458Z,7.38
2018-12-02T01:36:09.460Z,7.30
2018-12-02T01:38:37.296Z,7.29
2018-12-02T01:41:05.447Z,7.37
2018-12-02T01:43:32.673Z,7.32
2018-12-02T01:45:59.927Z,7.29
2018-12-02T01:48:27.220Z,7.24
2018-12-02T01:50:54.448Z,7.19
2018-12-02T01:53:21.748Z,7.17
2018-12-02T01:55:49.043Z,7.21
2018-12-02T01:58:16.408Z,7.17
2018-12-02T02:00:43.643Z,7.17
2018-12-02T02:03:10.977Z,7.10
2018-12-02T02:05:38.272Z,7.12
2018-12-02T02:08:05.850Z,7.11
2018-12-02T02:10:33.252Z,7.10
2018-12-02T02:13:00.546Z,7.10
2018-12-02T02:15:27.922Z,7.13
2018-12-02T02:17:55.175Z,7.18
2018-12-02T02:20:23.313Z,7.17
2018-12-02T02:22:50.750Z,7.13
2018-12-02T02:25:18.985Z,7.13
2018-12-02T02:27:48.452Z,7.11
2018-12-02T02:30:19.826Z,7.09
2018-12-02T02:32:47.170Z,7.03
2018-12-02T02:35:15.261Z,7.01
2018-12-02T02:37:42.565Z,6.99
2018-12-02T02:40:14.225Z,6.99
2018-12-02T02:42:41.600Z,6.94
2018-12-02T02:45:09.899Z,6.89
2018-12-02T02:47:37.682Z,6.83
2018-12-02T02:50:14.970Z,6.83
2018-12-02T02:52:43.536Z,6.86
2018-12-02T02:55:10.759Z,6.74
2018-12-02T02:57:38.569Z,6.69
2018-12-02T03:00:08.800Z,6.73
2018-12-02T03:02:36.244Z,6.73
2018-12-02T03:05:03.735Z,6.82
2018-12-02T03:07:31.048Z,6.78
2018-12-02T03:09:58.345Z,6.78
2018-12-02T03:12:25.611Z,6.84
2018-12-02T03:14:52.945Z,6.87
2018-12-02T03:17:20.277Z,6.88
2018-12-02T03:19:47.519Z,6.88
2018-12-02T03:22:14.708Z,6.90
2018-12-02T03:24:42.001Z,6.89
2018-12-02T03:27:09.437Z,6.90
2018-12-02T03:29:36.685Z,6.92
2018-12-02T03:32:03.949Z,6.96
2018-12-02T03:34:32.223Z,6.95
2018-12-02T03:36:59.553Z,6.96
2018-12-02T03:39:26.833Z,6.98
2018-12-02T03:41:54.099Z,6.99
2018-12-02T03:44:21.426Z,6.97
2018-12-02T03:46:48.715Z,6.99
2018-12-02T03:49:16.014Z,6.99
2018-12-02T03:51:44.012Z,6.98
2018-12-02T03:54:11.302Z,6.93
2018-12-02T03:56:39.052Z,6.90
2018-12-02T03:59:06.325Z,6.90
2018-12-02T04:01:33.601Z,6.85
2018-12-02T04:04:00.913Z,6.82
2018-12-02T04:06:29.661Z,6.81
2018-12-02T04:08:57.052Z,6.83
2018-12-02T04:11:24.406Z,6.90
2018-12-02T04:13:51.743Z,6.88
2018-12-02T04:16:19.115Z,6.89
2018-12-02T04:18:46.650Z,6.86
2018-12-02T04:21:14.519Z,6.91
2018-12-02T04:23:42.375Z,6.88
2018-12-02T04:26:10.561Z,6.90
2018-12-02T04:28:37.892Z,6.89
2018-12-02T04:31:05.483Z,6.88
2018-12-02T04:33:32.770Z,7.01
2018-12-02T04:36:00.122Z,7.00
2018-12-02T04:38:27.426Z,6.97
2018-12-02T04:40:54.796Z,6.99
2018-12-02T04:43:22.092Z,7.00
2018-12-02T04:45:49.385Z,6.99
2018-12-02T04:48:16.748Z,7.01
2018-12-02T04:50:44.157Z,6.99
2018-12-02T04:53:12.177Z,7.04
2018-12-02T04:55:39.867Z,7.05
2018-12-02T04:58:07.190Z,7.02
2018-12-02T05:00:34.485Z,7.01
2018-12-02T05:03:02.016Z,7.02
2018-12-02T05:05:29.354Z,6.97
2018-12-02T05:07:56.710Z,7.01
2018-12-02T05:10:23.958Z,6.99
2018-12-02T05:12:52.059Z,6.96
2018-12-02T05:15:20.224Z,6.99
2018-12-02T05:17:47.500Z,7.01
2018-12-02T05:20:16.931Z,6.98
2018-12-02T05:22:44.218Z,7.00
2018-12-02T05:25:17.556Z,6.94
2018-12-02T05:27:39.789Z,6.90
2018-12-02T05:30:13.212Z,6.88
2018-12-02T05:32:40.585Z,6.87
2018-12-02T05:35:09.328Z,6.82
2018-12-02T05:37:36.660Z,6.81
2018-12-02T05:40:14.932Z,6.71
2018-12-02T05:42:42.242Z,6.69
2018-12-02T05:45:10.554Z,6.76
2018-12-02T05:47:37.942Z,6.75
2018-12-02T05:50:15.210Z,6.75
2018-12-02T05:52:42.880Z,6.73
2018-12-02T05:55:12.252Z,6.68
2018-12-02T05:57:39.539Z,6.70
2018-12-02T06:00:14.952Z,6.67
2018-12-02T06:02:42.160Z,6.60
2018-12-02T06:05:10.312Z,6.55
2018-12-02T06:07:37.557Z,6.48
2018-12-02T06:10:09.535Z,6.55
2018-12-02T06:12:37.596Z,6.57
2018-12-02T06:15:07.089Z,6.56
2018-12-02T06:17:34.462Z,6.56
2018-12-02T06:20:04.900Z,6.51
2018-12-02T06:22:30.688Z,6.50
2018-12-02T06:24:58.038Z,6.53
2018-12-02T06:27:26.146Z,6.57
2018-12-02T06:29:53.489Z,6.54
2018-12-02T06:32:20.852Z,6.49
2018-12-02T06:34:48.215Z,6.50
2018-12-02T06:37:15.464Z,6.54
2018-12-02T06:39:42.757Z,6.51
2018-12-02T06:42:10.033Z,6.50
2018-12-02T06:44:37.327Z,6.50
2018-12-02T06:47:04.578Z,6.48
2018-12-02T06:49:31.900Z,6.52
2018-12-02T06:51:59.140Z,6.54
2018-12-02T06:54:26.473Z,6.55
2018-12-02T06:56:53.720Z,6.52
2018-12-02T06:59:53.821Z,6.52
2018-12-02T07:02:28.229Z,6.55
2018-12-02T07:04:55.520Z,6.57
2018-12-02T07:07:22.899Z,6.56
2018-12-02T07:09:50.179Z,6.56
2018-12-02T07:12:18.085Z,6.57
2018-12-02T07:14:45.465Z,6.60
2018-12-02T07:17:12.807Z,6.67
2018-12-02T07:19:42.749Z,6.69
2018-12-02T07:22:12.441Z,6.69
2018-12-02T07:29:37.549Z,6.74
2018-12-02T07:32:05.847Z,6.75
2018-12-02T07:34:33.169Z,6.73
2018-12-02T07:37:02.661Z,6.75
2018-12-02T07:40:47.544Z,6.73
2018-12-02T07:43:14.821Z,6.75
2018-12-02T07:45:42.242Z,6.71
2018-12-02T07:48:09.624Z,6.68
2018-12-02T07:50:37.778Z,6.66
2018-12-02T07:53:05.375Z,6.66
2018-12-02T07:55:33.620Z,6.65
2018-12-02T07:58:01.635Z,6.62
2018-12-02T08:00:28.986Z,6.61
2018-12-02T08:02:56.391Z,6.61
2018-12-02T08:05:26.341Z,6.66
2018-12-02T08:07:54.354Z,6.66
2018-12-02T08:10:22.411Z,6.69
2018-12-02T08:12:50.284Z,6.66
2018-12-02T08:15:18.951Z,6.65
2018-12-02T08:17:46.384Z,6.74
2018-12-02T08:20:18.131Z,6.77
2018-12-02T08:22:51.395Z,6.81
2018-12-02T08:25:15.188Z,6.82
2018-12-02T08:27:42.558Z,6.80
2018-12-02T08:30:18.193Z,6.83
2018-12-02T08:32:45.511Z,6.82
2018-12-02T08:35:13.986Z,6.81
2018-12-02T08:37:42.260Z,6.79
2018-12-02T08:40:10.712Z,6.77
2018-12-02T08:42:38.036Z,6.77
2018-12-02T08:45:07.837Z,6.79
2018-12-02T08:47:36.526Z,6.82
2018-12-02T08:50:05.443Z,6.78
2018-12-02T08:52:33.973Z,6.77
2018-12-02T08:55:01.405Z,6.77
2018-12-02T08:57:28.684Z,6.77
2018-12-02T08:59:56.838Z,6.77
2018-12-02T09:02:24.235Z,6.80
2018-12-02T09:04:51.579Z,6.83
2018-12-02T09:07:18.956Z,6.79
2018-12-02T09:09:46.242Z,6.82
2018-12-02T09:12:13.555Z,6.83
2018-12-02T09:14:40.839Z,6.84
2018-12-02T09:17:08.828Z,6.92
2018-12-02T09:19:36.123Z,6.90
2018-12-02T09:22:03.455Z,6.90
2018-12-02T09:24:30.840Z,6.95
2018-12-02T09:26:58.229Z,7.01
2018-12-02T09:29:26.370Z,7.02
2018-12-02T09:31:54.031Z,7.08
2018-12-02T09:34:22.308Z,7.16
2018-12-02T09:36:50.122Z,7.20
2018-12-02T09:39:18.465Z,7.23
2018-12-02T09:41:45.121Z,7.28
2018-12-02T09:44:12.509Z,7.30
2018-12-02T09:46:39.880Z,7.39
2018-12-02T09:49:07.198Z,7.42
2018-12-02T09:51:34.538Z,7.48
2018-12-02T09:54:02.740Z,7.51
2018-12-02T09:56:30.041Z,7.59
2018-12-02T09:58:57.409Z,7.67
2018-12-02T10:01:24.682Z,7.71
2018-12-02T10:03:52.051Z,7.77
2018-12-02T10:06:19.571Z,7.80
2018-12-02T10:08:47.145Z,7.86
2018-12-02T10:11:14.538Z,7.96
2018-12-02T10:13:42.024Z,8.00
2018-12-02T10:16:09.398Z,8.06
2018-12-02T10:18:36.856Z,8.08
2018-12-02T10:21:04.737Z,8.08
2018-12-02T10:23:33.949Z,8.10
2018-12-02T10:26:01.602Z,8.18
2018-12-02T10:28:28.918Z,8.19
2018-12-02T10:30:56.182Z,8.20
2018-12-02T10:33:23.537Z,8.21
2018-12-02T10:35:51.562Z,8.20
2018-12-02T10:38:18.867Z,8.21
2018-12-02T10:40:46.164Z,8.22
2018-12-02T10:43:13.505Z,8.26
2018-12-02T10:45:40.816Z,8.28
2018-12-02T10:48:09.655Z,8.28
2018-12-02T10:50:37.030Z,8.29
2018-12-02T10:53:10.980Z,8.33
2018-12-02T10:55:48.454Z,8.34
2018-12-02T10:58:19.125Z,8.32
2018-12-02T11:00:52.046Z,8.36
2018-12-02T11:03:19.536Z,8.40
2018-12-02T11:05:47.331Z,8.42
2018-12-02T11:08:14.801Z,8.44
2018-12-02T11:10:42.182Z,8.48
2018-12-02T11:13:09.484Z,8.49
2018-12-02T11:15:38.594Z,8.51
2018-12-02T11:18:07.953Z,8.51
2018-12-02T11:20:35.109Z,8.51
2018-12-02T11:23:03.323Z,8.49
2018-12-02T11:25:30.700Z,8.51
2018-12-02T11:27:58.049Z,8.50
2018-12-02T11:30:25.403Z,8.48
2018-12-02T11:32:53.401Z,8.49
2018-12-02T11:35:20.701Z,8.51
2018-12-02T11:37:48.015Z,8.55
2018-12-02T11:40:22.143Z,8.58
2018-12-02T11:42:50.865Z,8.58
2018-12-02T11:45:18.715Z,8.56
2018-12-02T11:47:48.106Z,8.52
2018-12-02T11:50:17.185Z,8.53
2018-12-02T11:52:44.506Z,8.53
2018-12-02T11:55:14.609Z,8.48
2018-12-02T11:57:43.749Z,8.48
2018-12-02T12:00:24.417Z,8.45
2018-12-02T12:02:52.166Z,8.47
2018-12-02T12:05:19.434Z,8.50
2018-12-02T12:07:48.248Z,8.56
2018-12-02T12:10:17.528Z,8.57
2018-12-02T12:12:45.691Z,8.59
2018-12-02T12:15:14.846Z,8.55
2018-12-02T12:17:42.200Z,8.58
2018-12-02T12:20:16.213Z,8.59
2018-12-02T12:22:43.490Z,8.70
2018-12-02T12:25:10.827Z,8.73
2018-12-02T12:27:38.276Z,8.78
2018-12-02T12:30:15.613Z,8.80
2018-12-02T12:32:42.896Z,8.91
2018-12-02T12:35:12.385Z,8.97
2018-12-02T12:37:39.660Z,8.96
2018-12-02T12:40:11.844Z,8.97
2018-12-02T12:42:39.411Z,8.98
2018-12-02T12:45:09.176Z,8.98
2018-12-02T12:47:37.166Z,8.99
2018-12-02T12:50:07.050Z,9.05
2018-12-02T12:52:34.422Z,9.02
2018-12-02T12:55:02.976Z,9.03
2018-12-02T12:57:31.072Z,9.02
2018-12-02T12:59:58.882Z,8.95
2018-12-02T13:02:26.235Z,8.94
2018-12-02T13:04:53.899Z,8.90
2018-12-02T13:07:21.400Z,8.85
2018-12-02T13:09:48.808Z,8.79
2018-12-02T13:12:16.199Z,8.76
2018-12-02T13:14:43.696Z,8.73
2018-12-02T13:17:11.075Z,8.72
2018-12-02T13:19:38.424Z,8.76
2018-12-02T13:22:05.846Z,8.70
2018-12-02T13:24:33.226Z,8.70
2018-12-02T13:27:00.567Z,8.72
2018-12-02T13:29:29.067Z,8.72
2018-12-02T13:31:56.445Z,8.76
2018-12-02T13:34:23.796Z,8.78
2018-12-02T13:36:51.660Z,8.79
2018-12-02T13:39:19.031Z,8.83
2018-12-02T13:41:46.433Z,8.84
2018-12-02T13:44:13.854Z,8.81
2018-12-02T13:46:41.156Z,8.78
2018-12-02T13:49:08.480Z,8.77
2018-12-02T13:51:35.790Z,8.73
2018-12-02T13:54:08.914Z,8.76
2018-12-02T13:56:36.181Z,8.73
2018-12-02T13:59:03.599Z,8.75
2018-12-02T14:01:30.993Z,8.73
2018-12-02T14:03:58.344Z,8.74
2018-12-02T14:06:25.659Z,8.72
2018-12-02T14:08:53.285Z,8.70
2018-12-02T14:11:21.003Z,8.66
2018-12-02T14:13:48.341Z,8.68
2018-12-02T14:16:55.679Z,8.67
2018-12-02T14:19:23.030Z,8.74
2018-12-02T14:21:50.402Z,8.79
2018-12-02T14:24:19.858Z,8.84
2018-12-02T14:26:48.004Z,8.91
2018-12-02T14:29:23.323Z,8.96
2018-12-02T14:31:55.423Z,9.04
2018-12-02T14:34:22.725Z,9.08
2018-12-02T14:36:50.033Z,9.11
2018-12-02T14:39:17.561Z,9.17
2018-12-02T14:41:44.880Z,9.23
2018-12-02T14:44:12.209Z,9.25
2018-12-02T14:46:39.609Z,9.23
2018-12-02T14:49:06.891Z,9.21
2018-12-02T14:51:34.349Z,9.24
2018-12-02T14:54:02.184Z,9.22
2018-12-02T14:56:30.298Z,9.24
2018-12-02T14:58:57.610Z,9.33
2018-12-02T15:01:25.025Z,9.42
2018-12-02T15:03:52.722Z,9.45
2018-12-02T15:06:20.240Z,9.50
2018-12-02T15:08:47.687Z,9.58
2018-12-02T15:11:14.948Z,9.63
2018-12-02T15:13:42.721Z,9.64
2018-12-02T15:16:09.996Z,9.62
2018-12-02T15:18:37.403Z,9.60
2018-12-02T15:21:05.014Z,9.57
2018-12-02T15:23:32.616Z,9.56
2018-12-02T15:25:59.950Z,9.62
2018-12-02T15:28:27.220Z,9.59
2018-12-02T15:30:54.621Z,9.61
2018-12-02T15:33:21.957Z,9.64
2018-12-02T15:35:49.229Z,9.64
2018-12-02T15:38:16.794Z,9.67
2018-12-02T15:40:45.190Z,9.66
2018-12-02T15:43:12.547Z,9.62
2018-12-02T15:45:39.948Z,9.62
2018-12-02T15:48:07.272Z,9.69
2018-12-02T15:50:34.610Z,9.71
2018-12-02T15:53:02.047Z,9.70
2018-12-02T15:55:30.808Z,9.72
2018-12-02T15:57:59.094Z,9.78
2018-12-02T16:00:30.683Z,9.75
2018-12-02T16:02:58.022Z,9.74
2018-12-02T16:05:25.488Z,9.69
2018-12-02T16:07:55.433Z,9.61
2018-12-02T16:10:24.340Z,9.61
2018-12-02T16:12:53.045Z,9.59
2018-12-02T16:15:22.236Z,9.61
2018-12-02T16:17:57.021Z,9.59
2018-12-02T16:20:27.568Z,9.61
2018-12-02T16:22:59.345Z,9.66
2018-12-02T16:25:27.161Z,9.65
2018-12-02T16:27:54.501Z,9.65
2018-12-02T16:30:21.924Z,9.66
2018-12-02T16:32:52.244Z,9.68
2018-12-02T16:35:19.711Z,9.74
2018-12-02T16:37:48.349Z,9.73
2018-12-02T16:40:19.791Z,9.79
2018-12-02T16:42:47.681Z,9.79
2018-12-02T16:45:15.984Z,9.83
2018-12-02T16:47:44.447Z,9.88
2018-12-02T16:50:23.301Z,9.94
2018-12-02T16:52:51.849Z,9.95
2018-12-02T16:55:20.999Z,9.99
2018-12-02T16:57:59.865Z,10.01
2018-12-02T17:00:35.279Z,10.08
2018-12-02T17:03:03.705Z,10.05
2018-12-02T17:05:31.284Z,10.07
2018-12-02T17:07:58.772Z,10.10
2018-12-02T17:10:26.348Z,10.13
2018-12-02T17:12:53.643Z,10.10
2018-12-02T17:15:20.937Z,10.13
2018-12-02T17:17:48.379Z,10.14
2018-12-02T17:20:16.656Z,10.20
2018-12-02T17:22:44.707Z,10.21
2018-12-02T17:25:12.816Z,10.20
2018-12-02T17:27:41.733Z,10.21
2018-12-02T17:30:18.076Z,10.18
2018-12-02T17:32:48.200Z,10.25
2018-12-02T17:35:18.910Z,10.20
2018-12-02T17:37:46.182Z,10.22
2018-12-02T17:40:16.296Z,10.28
2018-12-02T17:42:43.808Z,10.34
2018-12-02T17:45:13.019Z,10.41
2018-12-02T17:47:40.355Z,10.48
2018-12-02T17:50:12.129Z,10.52
2018-12-02T17:52:39.776Z,10.57
2018-12-02T17:55:07.819Z,10.58
2018-12-02T17:57:35.085Z,10.60
2018-12-02T18:00:03.225Z,10.58
2018-12-02T18:02:30.530Z,10.59
2018-12-02T18:04:58.098Z,10.62
2018-12-02T18:07:27.037Z,10.56
2018-12-02T18:09:54.332Z,10.52
2018-12-02T18:12:22.818Z,10.48
2018-12-02T18:14:50.272Z,10.50
2018-12-02T18:17:18.099Z,10.50
2018-12-02T18:19:46.609Z,10.60
2018-12-02T18:22:14.009Z,10.63
2018-12-02T18:24:41.473Z,10.64
2018-12-02T18:27:16.606Z,10.68
2018-12-02T18:29:45.256Z,10.74
2018-12-02T18:32:14.389Z,10.69
2018-12-02T18:34:42.680Z,10.68
2018-12-02T18:37:10.752Z,10.66
2018-12-02T18:39:38.103Z,10.64
2018-12-02T18:42:06.761Z,10.65
2018-12-02T18:44:40.932Z,10.68
2018-12-02T18:47:08.266Z,10.68
2018-12-02T18:49:38.868Z,10.68
2018-12-02T18:52:08.473Z,10.72
2018-12-02T18:54:38.211Z,10.73
2018-12-02T18:57:05.982Z,10.79
2018-12-02T18:59:35.811Z,10.82
2018-12-02T19:02:03.492Z,10.79
2018-12-02T19:04:32.237Z,10.76
2018-12-02T19:06:59.576Z,10.72
2018-12-02T19:09:29.500Z,10.76
2018-12-02T19:11:58.784Z,10.80
2018-12-02T19:14:33.037Z,10.72
2018-12-02T19:17:06.405Z,10.75
2018-12-02T19:19:36.431Z,10.79
2018-12-02T19:22:12.387Z,10.83
2018-12-02T19:24:44.184Z,10.82
2018-12-02T19:27:22.740Z,10.80
2018-12-02T19:29:57.196Z,10.78
2018-12-02T19:32:24.564Z,10.71
2018-12-02T19:34:53.036Z,10.67
2018-12-02T19:37:20.537Z,10.62
2018-12-02T19:39:49.727Z,10.55
2018-12-02T19:42:17.115Z,10.56
2018-12-02T19:44:44.958Z,10.58
2018-12-02T19:47:12.374Z,10.65
2018-12-02T19:49:40.221Z,10.66
2018-12-02T19:52:07.978Z,10.70
2018-12-02T19:54:36.835Z,10.71
2018-12-02T19:57:05.568Z,10.74
2018-12-02T19:59:33.067Z,10.80
2018-12-02T20:02:01.473Z,10.80
2018-12-02T20:04:29.369Z,10.76
2018-12-02T20:06:56.852Z,10.92
2018-12-02T20:09:25.088Z,10.95
2018-12-02T20:11:53.177Z,10.98
2018-12-02T20:14:20.552Z,10.89
2018-12-02T20:16:47.913Z,10.82
2018-12-02T20:19:21.264Z,10.88
2018-12-02T20:21:49.615Z,10.88
2018-12-02T20:24:25.300Z,10.93
2018-12-02T20:26:53.392Z,11.03
2018-12-02T20:29:20.970Z,11.08
2018-12-02T20:31:49.100Z,11.16
2018-12-02T20:34:16.520Z,11.16
2018-12-02T20:36:44.465Z,11.17
2018-12-02T20:39:11.836Z,11.10
2018-12-02T20:41:41.444Z,11.05
2018-12-02T20:44:08.844Z,11.02
2018-12-02T20:46:37.510Z,11.09
2018-12-02T20:49:05.032Z,10.98
2018-12-02T20:51:34.233Z,11.00
2018-12-02T20:54:02.442Z,11.04
2018-12-02T20:56:47.226Z,11.09
2018-12-02T20:59:15.488Z,11.09
2018-12-02T21:01:44.241Z,11.07
2018-12-02T21:04:15.293Z,11.08
2018-12-02T21:06:43.474Z,11.06
2018-12-02T21:09:10.827Z,11.06
2018-12-02T21:11:40.578Z,11.14
2018-12-02T21:14:08.307Z,11.14
2018-12-02T21:16:35.747Z,11.20
2018-12-02T21:19:06.222Z,11.30
2018-12-02T21:21:37.227Z,11.35
2018-12-02T21:24:01.899Z,11.38
2018-12-02T21:26:29.632Z,11.41
2018-12-02T21:28:57.607Z,11.46
2018-12-02T21:31:25.351Z,11.46
2018-12-02T21:33:52.620Z,11.51
2018-12-02T21:36:20.016Z,11.55
2018-12-02T21:38:47.313Z,11.58
2018-12-02T21:41:15.258Z,11.56
2018-12-02T21:43:42.637Z,11.51
2018-12-02T21:46:09.893Z,11.50
2018-12-02T21:48:37.667Z,11.50
2018-12-02T21:51:04.928Z,11.55
2018-12-02T21:53:32.272Z,11.63
2018-12-02T21:55:59.636Z,11.61
2018-12-02T21:58:26.974Z,11.62
2018-12-02T22:01:00.654Z,11.63
2018-12-02T22:03:27.906Z,11.62
2018-12-02T22:05:56.787Z,11.60
2018-12-02T22:08:24.194Z,11.54
2018-12-02T22:10:52.712Z,11.56
2018-12-02T22:13:20.481Z,11.54
2018-12-02T22:15:47.752Z,11.57
2018-12-02T22:18:15.992Z,11.47
2018-12-02T22:20:43.283Z,11.36
2018-12-02T22:23:10.585Z,11.29
2018-12-02T22:25:37.916Z,11.19
2018-12-02T22:28:06.975Z,11.13
2018-12-02T22:30:34.302Z,11.06
2018-12-02T22:33:01.614Z,11.05
2018-12-02T22:35:28.964Z,11.02
2018-12-02T22:37:56.975Z,10.97
2018-12-02T22:40:24.833Z,10.93
2018-12-02T22:42:53.089Z,10.92
2018-12-02T22:45:22.307Z,10.87
2018-12-02T22:47:49.725Z,10.83
2018-12-02T22:50:18.019Z,10.80
2018-12-02T22:52:46.395Z,10.78
2018-12-02T22:55:13.710Z,10.82
2018-12-02T22:57:40.965Z,10.87
2018-12-02T23:00:18.705Z,10.91
2018-12-02T23:02:53.185Z,10.92
2018-12-02T23:05:20.483Z,10.89
2018-12-02T23:07:47.776Z,10.89
2018-12-02T23:10:15.176Z,10.91
2018-12-02T23:12:42.401Z,10.92
2018-12-02T23:15:09.882Z,10.88
2018-12-02T23:17:37.733Z,10.86
2018-12-02T23:20:07.692Z,10.83
2018-12-02T23:22:34.914Z,10.81
2018-12-02T23:25:02.471Z,10.82
2018-12-02T23:27:29.780Z,10.80
2018-12-02T23:29:57.000Z,10.85
2018-12-02T23:32:24.279Z,10.87
2018-12-02T23:34:51.518Z,10.84
2018-12-02T23:37:20.695Z,10.82
2018-12-02T23:39:46.162Z,10.87
2018-12-02T23:42:14.733Z,10.94
2018-12-02T23:44:41.940Z,11.02
2018-12-02T23:47:09.275Z,11.01
2018-12-02T23:49:36.551Z,11.02
2018-12-02T23:52:04.497Z,10.97
2018-12-02T23:54:31.806Z,10.88
2018-12-02T23:56:59.165Z,10.85
2018-12-02T23:59:26.466Z,10.99
